Main page
METAR-TAF:

METAR-TAF

Airports :

Mehrabad International Airport

Tehran, Iran

latitude: 35-41N, longitude: 051-21E, elevation: 1204 m

Current weather observation

The report was made 47 minutes ago, at 22:30 UTC
Wind 4 kt from the Southeast
Temperature 29°C
Humidity 14%
Pressure 1013 hPa
Visibility 10 km or more
no clouds below 1500 m and no cumulonimbus

METAR: OIII 162230Z 14004KT CAVOK 29/M01 Q1012 A2991

Time: 03:47 (23:17 UTC)

Forecast

The report was made 6 hours and 7 minutes ago, at 17:10 UTC
Forecast valid from 16 at 18 UTC to 17 at 24 UTC
Wind 8 kt from the East/Northeast
Visibility: 8000 m
Temporary
from 17 at 07 UTC to 17 at 16 UTC
Wind 12 kt from the South/Southeast

TAF: OIII 161710Z 1618/1724 07008KT 8000 NSC TEMPO 1707/1716 15012KT

Weather observations and forecasts of more than 4000 airports (METAR and TAF reports).

The available stations are represented by yellow and red dots on the map.

Hover mouse over dot to see the name of the station.

Then click to see weather observations and forecasts.

To change the map : click on the green buttons with a black cross to zoom in, on the green button with a dash to zoom out, or on the green arrows for adjacent maps.


METAR-TAF: